Time;durP1;ratioP1;P1;durP2;ratioP2;P2;SDS_P1;SDS_P2;PMS_P1;PMS_P2;Temp;Humidity;BMP_temperature;BMP_pressure;BME280_temperature;BME280_humidity;BME280_pressure;Samples;Min_cycle;Max_cycle;Signal;HPM_P1;HPM_P2
2023/06/14 00:00:39;;;;;;;;;;;;;;;22.09;56.10;100576.06;7396398;19;1614;-54
2023/06/14 00:03:08;;;;;;;;;;;;;;;22.00;55.97;100559.00;7395934;19;1522;-55
2023/06/14 00:05:40;;;;;;;;;;;;;;;22.01;56.00;100560.72;7396034;19;1857;-54
2023/06/14 00:08:12;;;;;;;;;;;;;;;22.01;55.52;100576.88;7396304;19;1714;-54
2023/06/14 00:10:41;;;;;;;;;;;;;;;22.01;55.70;100579.56;7404090;19;1466;-54
2023/06/14 00:13:10;;;;;;;;;;;;;;;21.98;55.79;100588.78;7403179;19;1808;-54
2023/06/14 00:15:38;;;;;;;;;;;;;;;21.96;55.90;100573.81;7402512;19;1383;-54
2023/06/14 00:18:07;;;;;;;;;;;;;;;21.96;55.74;100574.63;7401878;19;1842;-55
2023/06/14 00:20:35;;;;;;;;;;;;;;;21.93;55.84;100566.06;7403465;19;1391;-54
2023/06/14 00:23:03;;;;;;;;;;;;;;;21.88;56.00;100571.06;7403497;19;1716;-53
2023/06/14 00:25:34;;;;;;;;;;;;;;;21.98;55.17;100569.09;7400106;19;1694;-54
2023/06/14 00:28:02;;;;;;;;;;;;;;;21.98;55.36;100563.72;7403586;19;1824;-54
2023/06/14 00:30:31;;;;;;;;;;;;;;;21.87;55.51;100561.31;7403222;19;1150;-54
2023/06/14 00:32:59;;;;;;;;;;;;;;;21.80;55.85;100559.22;7401814;19;1865;-54
2023/06/14 00:35:28;;;;;;;;;;;;;;;21.77;55.55;100558.72;7403190;19;1384;-54
2023/06/14 00:37:57;;;;;;;;;;;;;;;21.77;55.99;100551.50;7402074;19;1734;-54
2023/06/14 00:40:28;;;;;;;;;;;;;;;21.75;55.94;100561.56;7399450;19;1841;-54
2023/06/14 00:42:59;;;;;;;;;;;;;;;21.75;55.55;100560.75;7402015;19;1825;-54
2023/06/14 00:45:27;;;;;;;;;;;;;;;21.73;55.55;100549.28;7401538;19;1747;-54
2023/06/14 00:47:56;;;;;;;;;;;;;;;21.80;55.30;100561.94;7402688;19;1713;-54
2023/06/14 00:50:25;;;;;;;;;;;;;;;21.79;55.02;100556.72;7402713;19;1817;-54
2023/06/14 00:52:53;;;;;;;;;;;;;;;21.72;55.15;100548.41;7402717;19;1106;-54
2023/06/14 00:55:21;;;;;;;;;;;;;;;21.74;55.73;100554.47;7402511;19;1507;-54
2023/06/14 00:57:51;;;;;;;;;;;;;;;21.81;55.36;100550.16;7402836;19;1714;-54
2023/06/14 01:00:22;;;;;;;;;;;;;;;21.72;55.17;100539.50;7399580;19;1866;-54
2023/06/14 01:02:50;;;;;;;;;;;;;;;21.68;55.39;100544.34;7402074;19;1750;-54
2023/06/14 01:05:19;;;;;;;;;;;;;;;21.67;55.32;100548.06;7401651;19;1376;-55
2023/06/14 01:07:57;;;;;;;;;;;;;;;21.64;55.21;100537.59;7401410;19;1813;-55
2023/06/14 01:10:35;;;;;;;;;;;;;;;21.68;55.46;100548.91;7401503;19;1459;-55
2023/06/14 01:13:07;;;;;;;;;;;;;;;21.63;55.14;100552.09;7401578;19;1816;-54
2023/06/14 01:15:39;;;;;;;;;;;;;;;21.67;54.80;100548.06;7399428;19;1471;-55
2023/06/14 01:18:08;;;;;;;;;;;;;;;21.63;55.33;100554.78;7400865;19;1706;-54
2023/06/14 01:20:38;;;;;;;;;;;;;;;21.60;55.52;100555.06;7396264;19;1841;-55
2023/06/14 01:23:12;;;;;;;;;;;;;;;21.63;55.22;100552.91;7401297;19;1388;-54
2023/06/14 01:25:44;;;;;;;;;;;;;;;21.63;55.30;100552.91;7398884;19;1587;-54
2023/06/14 01:28:14;;;;;;;;;;;;;;;21.57;55.20;100552.72;7401247;19;1790;-55
2023/06/14 01:30:44;;;;;;;;;;;;;;;21.60;54.60;100542.47;7401545;19;1738;-54
2023/06/14 01:33:14;;;;;;;;;;;;;;;21.63;54.87;100557.47;7401292;19;1292;-54
2023/06/14 01:35:43;;;;;;;;;;;;;;;21.65;54.74;100550.06;7401634;19;985;-55
2023/06/14 01:38:15;;;;;;;;;;;;;;;21.65;54.79;100556.28;7400975;19;1467;-55
2023/06/14 01:40:45;;;;;;;;;;;;;;;21.61;54.81;100543.31;7398766;19;1963;-55
2023/06/14 01:43:14;;;;;;;;;;;;;;;21.57;54.76;100550.03;7401135;19;1797;-54
2023/06/14 01:45:43;;;;;;;;;;;;;;;21.56;55.21;100556.41;7400639;19;1818;-55
2023/06/14 01:48:11;;;;;;;;;;;;;;;21.56;55.35;100553.69;7400755;19;1833;-53
2023/06/14 01:50:40;;;;;;;;;;;;;;;21.62;55.44;100563.84;7400809;19;1735;-53
2023/06/14 01:53:10;;;;;;;;;;;;;;;21.56;55.47;100562.59;7400389;19;1477;-54
2023/06/14 01:55:43;;;;;;;;;;;;;;;21.57;55.08;100571.56;7400858;19;1786;-53
2023/06/14 01:58:11;;;;;;;;;;;;;;;21.60;55.10;100563.16;7401623;19;1014;-53
2023/06/14 02:00:40;;;;;;;;;;;;;;;21.54;55.17;100558.41;7398832;19;1837;-54
2023/06/14 02:03:08;;;;;;;;;;;;;;;21.57;54.90;100550.03;7399571;19;1605;-54
2023/06/14 02:05:38;;;;;;;;;;;;;;;21.55;55.19;100560.94;7398944;19;1846;-54
2023/06/14 02:08:07;;;;;;;;;;;;;;;21.49;55.00;100566.09;7400053;19;1359;-53
2023/06/14 02:10:35;;;;;;;;;;;;;;;21.47;54.70;100552.81;7399749;19;1819;-54
2023/06/14 02:13:06;;;;;;;;;;;;;;;21.43;54.54;100560.34;7399389;19;1991;-54
2023/06/14 02:15:36;;;;;;;;;;;;;;;21.50;54.67;100557.03;7398928;19;1707;-55
2023/06/14 02:18:05;;;;;;;;;;;;;;;21.45;54.54;100561.03;7397776;19;1726;-55
2023/06/14 02:20:33;;;;;;;;;;;;;;;21.40;54.78;100571.38;7398158;19;1846;-54
2023/06/14 02:23:02;;;;;;;;;;;;;;;21.41;55.22;100567.69;7399314;19;1821;-54
2023/06/14 02:25:30;;;;;;;;;;;;;;;21.42;54.94;100569.38;7397321;19;1732;-54
2023/06/14 02:27:58;;;;;;;;;;;;;;;21.47;54.68;100578.84;7400180;19;1051;-54
2023/06/14 02:30:30;;;;;;;;;;;;;;;21.45;54.80;100587.09;7396661;19;1916;-55
2023/06/14 02:32:59;;;;;;;;;;;;;;;21.47;54.98;100584.22;7396005;19;1523;-54
2023/06/14 02:35:27;;;;;;;;;;;;;;;21.47;54.63;100579.72;7398122;19;1650;-54
2023/06/14 02:37:56;;;;;;;;;;;;;;;21.41;54.74;100589.22;7398618;19;1031;-54
2023/06/14 02:40:24;;;;;;;;;;;;;;;21.40;54.54;100582.13;7396424;19;1946;-54
2023/06/14 02:42:52;;;;;;;;;;;;;;;21.35;54.55;100584.47;7398393;19;1728;-55
2023/06/14 02:45:21;;;;;;;;;;;;;;;21.39;54.85;100598.44;7397848;19;1871;-54
2023/06/14 02:47:51;;;;;;;;;;;;;;;21.45;54.84;100609.47;7398678;19;1743;-55
2023/06/14 02:50:21;;;;;;;;;;;;;;;21.49;54.55;100592.97;7399200;19;1663;-54
2023/06/14 02:52:49;;;;;;;;;;;;;;;21.49;54.65;100598.38;7399690;19;1047;-54
2023/06/14 02:55:17;;;;;;;;;;;;;;;21.47;54.60;100611.13;7397911;19;1593;-55
2023/06/14 02:57:47;;;;;;;;;;;;;;;21.42;54.11;100607.03;7398632;19;1814;-54
2023/06/14 03:00:16;;;;;;;;;;;;;;;21.35;54.44;100591.69;7396503;19;1841;-54
2023/06/14 03:02:45;;;;;;;;;;;;;;;21.38;54.26;100602.13;7398000;19;1834;-55
2023/06/14 03:05:19;;;;;;;;;;;;;;;21.33;54.11;100601.72;7396012;19;1614;-53
2023/06/14 03:07:47;;;;;;;;;;;;;;;21.29;54.55;100605.72;7398646;19;1038;-55
2023/06/14 03:10:15;;;;;;;;;;;;;;;21.35;54.81;100608.66;7395626;19;1535;-52
2023/06/14 03:12:44;;;;;;;;;;;;;;;21.44;54.75;100618.50;7398630;19;1724;-54
2023/06/14 03:15:13;;;;;;;;;;;;;;;21.55;54.13;100619.28;7396363;19;1813;-53
2023/06/14 03:17:44;;;;;;;;;;;;;;;21.47;54.62;100603.94;7397789;19;1462;-54
2023/06/14 03:20:13;;;;;;;;;;;;;;;21.51;54.08;100613.38;7396612;19;1852;-54
2023/06/14 03:22:45;;;;;;;;;;;;;;;21.44;54.14;100615.81;7397278;19;1423;-53
2023/06/14 03:25:15;;;;;;;;;;;;;;;21.41;54.28;100624.19;7396112;19;1730;-53
2023/06/14 03:27:43;;;;;;;;;;;;;;;21.40;54.63;100627.84;7399148;19;1023;-54
2023/06/14 03:30:12;;;;;;;;;;;;;;;21.36;54.29;100621.09;7398018;19;1877;-55
2023/06/14 03:32:40;;;;;;;;;;;;;;;21.34;54.28;100633.88;7396909;19;1539;-55
2023/06/14 03:35:10;;;;;;;;;;;;;;;21.39;54.09;100633.41;7396510;19;1968;-54
2023/06/14 03:37:38;;;;;;;;;;;;;;;21.42;53.94;100633.94;7396233;19;1536;-53
2023/06/14 03:40:09;;;;;;;;;;;;;;;21.47;53.96;100633.53;7396438;19;1857;-55
2023/06/14 03:42:37;;;;;;;;;;;;;;;21.51;53.74;100628.69;7395637;19;1494;-55
2023/06/14 03:45:06;;;;;;;;;;;;;;;21.50;53.72;100637.75;7395123;19;1801;-55
2023/06/14 03:47:35;;;;;;;;;;;;;;;21.55;53.99;100630.06;7397034;19;1027;-53
2023/06/14 03:50:03;;;;;;;;;;;;;;;21.62;54.15;100636.50;7398247;19;1928;-54
2023/06/14 03:52:32;;;;;;;;;;;;;;;21.70;53.73;100633.84;7394400;19;1837;-54
2023/06/14 03:55:01;;;;;;;;;;;;;;;21.71;53.61;100632.88;7393758;19;1818;-54
2023/06/14 03:57:32;;;;;;;;;;;;;;;21.82;53.79;100643.34;7393461;19;1807;-54
2023/06/14 04:00:00;;;;;;;;;;;;;;;21.87;53.47;100650.16;7395481;19;1860;-54
2023/06/14 04:02:29;;;;;;;;;;;;;;;21.84;53.20;100640.53;7395362;19;1972;-54
2023/06/14 04:04:57;;;;;;;;;;;;;;;21.95;53.24;100642.13;7396716;19;1706;-54
2023/06/14 04:07:28;;;;;;;;;;;;;;;21.91;53.51;100648.84;7396011;19;1154;-55
2023/06/14 04:09:56;;;;;;;;;;;;;;;21.40;53.69;100576.75;7394577;19;1179;-54
2023/06/14 04:12:25;;;;;;;;;;;;;;;22.11;53.58;100653.00;7394900;19;1453;-54
2023/06/14 04:14:55;;;;;;;;;;;;;;;22.00;55.13;100659.50;7393796;19;1461;-54
2023/06/14 04:17:24;;;;;;;;;;;;;;;21.97;54.08;100648.19;7392691;19;1387;-54
2023/06/14 04:19:52;;;;;;;;;;;;;;;21.80;55.63;100656.13;7394828;19;1861;-54
2023/06/14 04:22:20;;;;;;;;;;;;;;;22.06;54.42;100660.69;7394338;19;1471;-54
2023/06/14 04:24:49;;;;;;;;;;;;;;;22.10;54.34;100661.22;7391907;19;1806;-54
2023/06/14 04:27:21;;;;;;;;;;;;;;;22.08;54.21;100658.69;7395201;19;1325;-52
2023/06/14 04:29:53;;;;;;;;;;;;;;;22.09;53.93;100651.47;7393264;19;1932;-54
2023/06/14 04:32:25;;;;;;;;;;;;;;;22.27;53.69;100651.44;7394826;19;1560;-54
2023/06/14 04:34:53;;;;;;;;;;;;;;;22.11;54.65;100653.00;7393165;19;1440;-55
2023/06/14 04:37:22;;;;;;;;;;;;;;;21.96;55.32;100651.88;7388853;19;1553;-53
2023/06/14 04:39:51;;;;;;;;;;;;;;;22.00;54.90;100667.59;7389686;19;1850;-54
2023/06/14 04:42:20;;;;;;;;;;;;;;;21.63;55.90;100657.03;7390197;19;1376;-54
2023/06/14 04:44:49;;;;;;;;;;;;;;;21.58;56.50;100657.47;7390697;19;1506;-54
2023/06/14 04:47:17;;;;;;;;;;;;;;;21.62;56.16;100668.78;7390375;19;1862;-52
2023/06/14 04:49:48;;;;;;;;;;;;;;;21.63;56.40;100659.72;7389688;19;1598;-54
2023/06/14 04:52:17;;;;;;;;;;;;;;;21.70;56.47;100663.47;7388608;19;1790;-54
2023/06/14 04:54:46;;;;;;;;;;;;;;;21.80;55.69;100658.81;7390709;19;1790;-55
2023/06/14 04:57:16;;;;;;;;;;;;;;;21.94;55.32;100672.72;7393961;19;1450;-55
2023/06/14 04:59:45;;;;;;;;;;;;;;;22.05;55.47;100669.78;7400228;19;1859;-54
2023/06/14 05:02:13;;;;;;;;;;;;;;;22.12;55.49;100681.59;7396139;19;1458;-54
2023/06/14 05:04:44;;;;;;;;;;;;;;;22.10;55.65;100672.84;7400822;19;1521;-54
2023/06/14 05:07:15;;;;;;;;;;;;;;;21.88;55.72;100665.28;7401189;19;1472;-54
2023/06/14 05:09:44;;;;;;;;;;;;;;;21.99;55.90;100668.56;6873387;19;10000615;-54
2023/06/14 05:12:12;;;;;;;;;;;;;;;21.84;55.86;100676.38;7392551;19;1555;-55
2023/06/14 05:14:40;;;;;;;;;;;;;;;21.81;55.83;100667.78;7392717;19;1542;-48
2023/06/14 05:17:09;;;;;;;;;;;;;;;21.95;55.49;100677.13;7391878;19;1569;-48
2023/06/14 05:19:37;;;;;;;;;;;;;;;22.02;55.35;100672.78;7392991;19;1394;-47
2023/06/14 05:22:06;;;;;;;;;;;;;;;22.02;55.81;100670.97;7391406;19;1876;-48
2023/06/14 05:24:37;;;;;;;;;;;;;;;22.07;55.53;100678.56;7394253;19;1814;-48
2023/06/14 05:27:05;;;;;;;;;;;;;;;22.00;55.27;100672.09;7393742;19;1177;-48
2023/06/14 05:29:34;;;;;;;;;;;;;;;22.13;55.20;100677.91;7392632;19;1499;-47
2023/06/14 05:32:02;;;;;;;;;;;;;;;22.05;55.30;100672.47;7391820;19;1410;-47
2023/06/14 05:34:31;;;;;;;;;;;;;;;21.93;55.53;100682.66;7393522;19;1815;-47
2023/06/14 05:37:00;;;;;;;;;;;;;;;22.17;55.31;100676.59;7392245;19;1418;-47
2023/06/14 05:39:28;;;;;;;;;;;;;;;22.19;55.27;100681.84;7391852;19;1541;-47
2023/06/14 05:41:59;;;;;;;;;;;;;;;22.18;55.08;100686.38;7389450;19;1861;-47
2023/06/14 05:44:27;;;;;;;;;;;;;;;22.34;54.77;100679.41;7390828;19;1427;-48
2023/06/14 05:46:55;;;;;;;;;;;;;;;22.35;54.81;100691.91;7394402;19;1529;-47
2023/06/14 05:49:24;;;;;;;;;;;;;;;22.38;54.73;100688.88;7392401;19;1624;-47
2023/06/14 05:51:52;;;;;;;;;;;;;;;22.60;54.21;100679.38;7394312;19;1825;-47
2023/06/14 05:54:20;;;;;;;;;;;;;;;22.43;55.07;100697.31;7392419;19;1769;-47
2023/06/14 05:56:48;;;;;;;;;;;;;;;22.20;55.23;100679.00;7390670;19;1906;-48
2023/06/14 05:59:20;;;;;;;;;;;;;;;22.24;55.23;100691.16;7391112;19;1415;-47
2023/06/14 06:01:48;;;;;;;;;;;;;;;22.34;54.57;100684.81;7389418;19;1856;-47
2023/06/14 06:04:16;;;;;;;;;;;;;;;22.34;54.76;100696.44;7392976;19;1648;-47
2023/06/14 06:06:45;;;;;;;;;;;;;;;22.28;54.69;100691.66;7391247;19;1560;-48
2023/06/14 06:09:14;;;;;;;;;;;;;;;22.25;55.00;100689.31;7388686;19;2294;-47
2023/06/14 06:11:42;;;;;;;;;;;;;;;22.34;54.60;100682.09;7391729;19;1561;-47
2023/06/14 06:14:10;;;;;;;;;;;;;;;22.28;55.04;100693.53;7393585;19;1170;-47
2023/06/14 06:16:41;;;;;;;;;;;;;;;22.06;55.81;100693.00;7394986;19;1935;-47
2023/06/14 06:19:10;;;;;;;;;;;;;;;22.33;55.11;100700.13;7398150;19;1890;-47
2023/06/14 06:21:38;;;;;;;;;;;;;;;22.33;55.29;100693.91;7395619;19;1853;-48
2023/06/14 06:24:07;;;;;;;;;;;;;;;22.29;55.41;100698.75;7396437;19;1851;-47
2023/06/14 06:26:36;;;;;;;;;;;;;;;22.39;55.16;100704.03;7396903;19;1348;-48
2023/06/14 06:29:04;;;;;;;;;;;;;;;22.37;55.21;100706.06;7396838;19;1547;-47
2023/06/14 06:31:32;;;;;;;;;;;;;;;22.44;55.11;100707.09;7396457;19;1447;-47
2023/06/14 06:34:03;;;;;;;;;;;;;;;22.54;55.32;100704.28;7396374;19;1455;-47
2023/06/14 06:36:32;;;;;;;;;;;;;;;22.51;55.21;100700.06;7397095;19;1403;-47
2023/06/14 06:39:00;;;;;;;;;;;;;;;22.42;55.33;100704.56;7396942;19;1540;-47
2023/06/14 06:41:28;;;;;;;;;;;;;;;22.35;55.51;100718.84;7394743;19;1861;-47
2023/06/14 06:43:56;;;;;;;;;;;;;;;22.39;55.58;100698.66;7397805;19;1375;-47
2023/06/14 06:46:25;;;;;;;;;;;;;;;22.30;56.11;100700.44;7395702;19;1704;-47
2023/06/14 06:48:54;;;;;;;;;;;;;;;22.48;55.84;100710.31;7394557;19;1847;-47
2023/06/14 06:51:25;;;;;;;;;;;;;;;22.34;55.98;100695.59;7395578;19;1526;-47
2023/06/14 06:53:55;;;;;;;;;;;;;;;22.46;56.01;100688.06;7396085;19;1408;-47
2023/06/14 06:56:24;;;;;;;;;;;;;;;22.47;55.93;100700.56;7395464;19;1483;-47
2023/06/14 06:58:52;;;;;;;;;;;;;;;22.59;55.76;100694.72;7386812;19;1662;-47
2023/06/14 07:01:21;;;;;;;;;;;;;;;22.80;55.25;100702.41;7395104;19;1860;-48
2023/06/14 07:03:49;;;;;;;;;;;;;;;22.94;54.75;100692.84;7393550;19;1609;-47
2023/06/14 07:06:18;;;;;;;;;;;;;;;23.12;54.46;100700.00;7394141;19;1532;-50
2023/06/14 07:08:50;;;;;;;;;;;;;;;22.78;55.44;100699.03;7393414;19;1678;-48
2023/06/14 07:11:18;;;;;;;;;;;;;;;22.73;55.88;100700.50;7391830;19;1685;-48
2023/06/14 07:13:47;;;;;;;;;;;;;;;22.74;55.99;100705.75;7395291;19;1918;-47
2023/06/14 07:16:15;;;;;;;;;;;;;;;22.97;55.33;100703.28;7394648;19;1965;-48
2023/06/14 07:18:43;;;;;;;;;;;;;;;22.75;55.50;100695.81;7391974;19;1606;-48
2023/06/14 07:21:12;;;;;;;;;;;;;;;22.95;55.02;100699.91;7394963;19;1869;-48
2023/06/14 07:23:40;;;;;;;;;;;;;;;23.05;54.70;100693.59;7390195;19;1789;-48
2023/06/14 07:26:11;;;;;;;;;;;;;;;22.91;55.50;100681.53;7388376;19;1707;-47
2023/06/14 07:28:40;;;;;;;;;;;;;;;22.95;55.49;100697.22;7395269;19;2052;-47
2023/06/14 07:31:08;;;;;;;;;;;;;;;22.92;55.11;100689.47;7396899;19;1011;-47
2023/06/14 07:33:36;;;;;;;;;;;;;;;22.97;55.19;100695.19;7394203;19;1858;-47
2023/06/14 07:36:05;;;;;;;;;;;;;;;22.89;55.09;100689.78;7391075;19;1896;-47
2023/06/14 07:38:34;;;;;;;;;;;;;;;23.14;54.76;100692.56;7395278;19;1828;-47
2023/06/14 07:41:03;;;;;;;;;;;;;;;22.95;55.78;100686.44;7394475;19;1857;-46
2023/06/14 07:43:33;;;;;;;;;;;;;;;22.88;55.79;100674.63;7392665;19;1708;-47
2023/06/14 07:46:02;;;;;;;;;;;;;;;22.96;55.70;100689.97;7394781;19;1634;-49
2023/06/14 07:48:30;;;;;;;;;;;;;;;22.94;55.62;100682.06;7392506;19;1503;-47
2023/06/14 07:50:58;;;;;;;;;;;;;;;23.12;55.05;100681.09;7390576;19;1550;-46
2023/06/14 07:53:27;;;;;;;;;;;;;;;23.22;55.19;100679.13;7394072;19;1542;-47
2023/06/14 07:55:55;;;;;;;;;;;;;;;23.19;55.55;100691.06;7394733;19;1595;-47
2023/06/14 07:58:24;;;;;;;;;;;;;;;23.11;55.85;100680.28;7393757;19;1206;-47
2023/06/14 08:00:55;;;;;;;;;;;;;;;22.93;56.25;100683.06;7392646;19;1881;-48
2023/06/14 08:03:23;;;;;;;;;;;;;;;23.06;56.23;100677.25;7389883;19;1955;-48
2023/06/14 08:05:52;;;;;;;;;;;;;;;23.00;56.35;100677.88;7392429;19;1667;-47
2023/06/14 08:08:20;;;;;;;;;;;;;;;23.05;56.25;100682.78;7390064;19;1657;-47
2023/06/14 08:10:48;;;;;;;;;;;;;;;22.99;56.38;100677.00;7388801;19;1363;-47
2023/06/14 08:13:17;;;;;;;;;;;;;;;23.00;56.39;100681.41;7390743;19;1501;-50
2023/06/14 08:15:45;;;;;;;;;;;;;;;23.31;55.46;100694.31;7391267;19;1444;-47
2023/06/14 08:18:16;;;;;;;;;;;;;;;23.47;55.05;100681.88;7389389;19;1578;-47
2023/06/14 08:20:44;;;;;;;;;;;;;;;23.55;54.87;100692.66;7393069;19;1838;-47
2023/06/14 08:23:13;;;;;;;;;;;;;;;23.50;55.03;100678.84;7389670;19;1361;-47
2023/06/14 08:25:41;;;;;;;;;;;;;;;23.50;54.86;100682.38;7392837;19;1368;-47
2023/06/14 08:28:09;;;;;;;;;;;;;;;23.50;54.91;100678.84;7393750;19;1544;-47
2023/06/14 08:30:38;;;;;;;;;;;;;;;23.46;55.06;100669.34;7396094;19;1610;-47
2023/06/14 08:33:06;;;;;;;;;;;;;;;23.40;55.53;100670.91;7398275;19;1578;-48
2023/06/14 08:35:39;;;;;;;;;;;;;;;23.36;55.67;100688.44;7398452;19;1485;-48
2023/06/14 08:38:07;;;;;;;;;;;;;;;23.13;56.34;100666.63;7399105;19;1211;-50
2023/06/14 08:40:38;;;;;;;;;;;;;;;23.20;55.86;100667.66;7398188;19;1269;-47
2023/06/14 08:43:07;;;;;;;;;;;;;;;23.18;55.94;100667.00;7395847;19;2234;-47
2023/06/14 08:45:35;;;;;;;;;;;;;;;23.07;56.73;100662.72;7398043;19;1560;-48
2023/06/14 08:48:03;;;;;;;;;;;;;;;22.97;56.86;100660.16;7396133;19;1436;-47
2023/06/14 08:50:33;;;;;;;;;;;;;;;22.95;56.89;100669.41;7399540;19;1313;-47
2023/06/14 08:53:05;;;;;;;;;;;;;;;23.05;57.03;100655.81;7399954;19;1527;-48
2023/06/14 08:55:38;;;;;;;;;;;;;;;23.07;56.91;100659.19;7400003;19;1838;-47
2023/06/14 08:58:09;;;;;;;;;;;;;;;23.02;57.18;100679.41;7396347;19;1459;-48
2023/06/14 09:00:38;;;;;;;;;;;;;;;22.94;57.59;100655.09;7399138;19;1612;-47
2023/06/14 09:03:13;;;;;;;;;;;;;;;23.13;56.65;100662.06;7395790;19;1849;-48
2023/06/14 09:05:41;;;;;;;;;;;;;;;22.96;57.03;100658.47;7399433;19;1570;-47
2023/06/14 09:08:12;;;;;;;;;;;;;;;23.06;56.76;100660.19;7399726;19;1573;-50
2023/06/14 09:10:42;;;;;;;;;;;;;;;23.19;56.54;100668.66;7398442;19;1574;-48
2023/06/14 09:13:10;;;;;;;;;;;;;;;23.20;56.34;100659.56;7400798;19;1870;-47
2023/06/14 09:15:38;;;;;;;;;;;;;;;23.29;55.93;100663.94;7397164;19;1217;-47
2023/06/14 09:18:07;;;;;;;;;;;;;;;23.52;55.28;100666.03;7397619;19;1291;-47
2023/06/14 09:20:35;;;;;;;;;;;;;;;23.50;55.39;100697.72;7400015;19;1590;-47
2023/06/14 09:23:05;;;;;;;;;;;;;;;23.63;54.99;100662.97;7397032;19;1859;-47
2023/06/14 09:25:44;;;;;;;;;;;;;;;23.49;55.47;100669.03;7397880;19;1565;-49
2023/06/14 09:28:12;;;;;;;;;;;;;;;23.42;55.92;100664.31;7398948;19;1325;-47
2023/06/14 09:30:41;;;;;;;;;;;;;;;23.59;55.12;100672.41;7401394;19;1486;-47
2023/06/14 09:33:09;;;;;;;;;;;;;;;23.59;54.99;100657.06;7398535;19;1458;-47
2023/06/14 09:35:37;;;;;;;;;;;;;;;23.59;55.43;100656.22;7399600;19;1617;-48
2023/06/14 09:38:06;;;;;;;;;;;;;;;23.52;55.27;100664.16;7398798;19;1479;-48
2023/06/14 09:40:40;;;;;;;;;;;;;;;23.59;55.20;100664.31;7397913;19;1834;-47
2023/06/14 09:43:09;;;;;;;;;;;;;;;23.42;55.52;100655.38;7394779;19;1849;-47
2023/06/14 09:45:39;;;;;;;;;;;;;;;23.38;55.72;100670.22;7397962;19;1486;-48
2023/06/14 09:48:07;;;;;;;;;;;;;;;23.32;56.59;100660.94;7396732;19;1709;-46
2023/06/14 09:50:36;;;;;;;;;;;;;;;23.48;56.12;100667.38;7397839;19;1471;-46
2023/06/14 09:53:05;;;;;;;;;;;;;;;23.35;57.38;100647.09;7396281;19;1586;-46
2023/06/14 09:55:36;;;;;;;;;;;;;;;23.32;57.11;100652.84;7398565;19;1431;-45
2023/06/14 09:58:08;;;;;;;;;;;;;;;23.36;57.79;100642.56;7394631;19;1802;-46
2023/06/14 10:00:38;;;;;;;;;;;;;;;23.47;57.20;100644.06;7396310;19;1604;-46
2023/06/14 10:03:08;;;;;;;;;;;;;;;23.47;57.13;100658.41;7397017;19;1852;-46
2023/06/14 10:05:38;;;;;;;;;;;;;;;23.39;57.79;100643.03;7397166;19;1842;-47
2023/06/14 10:08:07;;;;;;;;;;;;;;;23.32;58.25;100642.06;7396866;19;1515;-46
2023/06/14 10:10:36;;;;;;;;;;;;;;;23.18;58.21;100642.72;7396152;19;1667;-46
2023/06/14 10:13:04;;;;;;;;;;;;;;;23.25;57.72;100657.22;7395906;19;1445;-46
2023/06/14 10:15:41;;;;;;;;;;;;;;;23.16;58.86;100644.72;7397108;19;1520;-47
2023/06/14 10:18:14;;;;;;;;;;;;;;;23.11;59.18;100638.97;7395905;19;1312;-46
2023/06/14 10:20:48;;;;;;;;;;;;;;;23.37;58.14;100641.53;7398475;19;1607;-46
2023/06/14 10:23:18;;;;;;;;;;;;;;;23.26;58.17;100631.94;7395481;19;1863;-47
2023/06/14 10:25:47;;;;;;;;;;;;;;;23.41;57.64;100649.13;7395158;19;1316;-47
2023/06/14 10:28:22;;;;;;;;;;;;;;;23.28;57.84;100635.31;7397732;19;1580;-46
2023/06/14 10:31:17;;;;;;;;;;;;;;;23.19;58.35;100615.53;7398154;19;1182;-47
2023/06/14 10:33:58;;;;;;;;;;;;;;;23.30;59.06;100627.88;7392841;19;2318;-47
2023/06/14 10:36:30;;;;;;;;;;;;;;;23.26;60.66;100640.03;7395748;19;1524;-47
2023/06/14 10:39:03;;;;;;;;;;;;;;;23.22;58.99;100636.81;7394827;19;1386;-48
2023/06/14 10:41:31;;;;;;;;;;;;;;;23.31;59.60;100640.34;7393519;19;1852;-50
2023/06/14 10:44:14;;;;;;;;;;;;;;;23.17;59.39;100641.00;7390762;19;1504;-50
2023/06/14 10:46:43;;;;;;;;;;;;;;;23.12;59.31;100644.22;7392718;19;1808;-50
2023/06/14 10:49:13;;;;;;;;;;;;;;;23.12;59.71;100643.34;7393020;19;1551;-49
2023/06/14 10:51:46;;;;;;;;;;;;;;;23.14;59.90;100639.50;7393971;19;1626;-50
2023/06/14 10:54:14;;;;;;;;;;;;;;;22.69;59.69;100554.44;7390990;19;1809;-50
2023/06/14 10:56:48;;;;;;;;;;;;;;;23.20;59.89;100638.00;7392385;19;1521;-50
2023/06/14 10:59:17;;;;;;;;;;;;;;;23.31;59.79;100634.94;7393789;19;1520;-50
2023/06/14 11:01:54;;;;;;;;;;;;;;;23.23;59.29;100643.03;7393204;19;1854;-50
2023/06/14 11:04:30;;;;;;;;;;;;;;;23.20;59.99;100638.00;7393341;19;1548;-47
2023/06/14 11:07:06;;;;;;;;;;;;;;;22.99;59.80;100631.16;7389651;19;1918;-47
2023/06/14 11:09:49;;;;;;;;;;;;;;;23.31;58.90;100643.03;7392125;19;1841;-46
2023/06/14 11:12:18;;;;;;;;;;;;;;;23.37;59.04;100636.97;7396486;19;1537;-47
2023/06/14 11:14:48;;;;;;;;;;;;;;;23.42;58.84;100642.72;7396656;19;1738;-47
2023/06/14 11:17:17;;;;;;;;;;;;;;;23.38;58.55;100624.34;7395237;19;1715;-47
2023/06/14 11:19:48;;;;;;;;;;;;;;;23.38;58.62;100614.38;7396690;19;987;-47
2023/06/14 11:22:17;;;;;;;;;;;;;;;23.37;58.72;100622.66;7397836;19;1852;-47
2023/06/14 11:24:45;;;;;;;;;;;;;;;23.32;58.75;100633.97;7390246;19;2307;-47
2023/06/14 11:27:14;;;;;;;;;;;;;;;23.29;58.96;100619.94;7396182;19;1865;-46
2023/06/14 11:29:50;;;;;;;;;;;;;;;23.38;58.63;100619.78;7394093;19;1914;-46
2023/06/14 11:32:18;;;;;;;;;;;;;;;23.49;58.52;100621.28;7395576;19;1840;-47
2023/06/14 11:34:51;;;;;;;;;;;;;;;23.35;59.16;100625.50;7395564;19;1487;-47
2023/06/14 11:37:19;;;;;;;;;;;;;;;23.33;59.06;100616.75;7396103;19;1734;-46
2023/06/14 11:39:48;;;;;;;;;;;;;;;23.41;58.72;100613.19;7395158;19;1830;-47
2023/06/14 11:42:16;;;;;;;;;;;;;;;23.60;58.40;100612.03;7395837;19;1846;-47
2023/06/14 11:44:44;;;;;;;;;;;;;;;23.62;58.50;100610.84;7396001;19;1609;-47
2023/06/14 11:47:13;;;;;;;;;;;;;;;23.65;58.63;100615.03;7397292;19;1952;-47
2023/06/14 11:49:41;;;;;;;;;;;;;;;23.65;58.61;100604.25;7395581;19;1949;-47
2023/06/14 11:52:12;;;;;;;;;;;;;;;23.71;59.07;100619.75;7396803;19;1454;-46
2023/06/14 11:54:42;;;;;;;;;;;;;;;23.52;60.45;100598.53;7395412;19;1834;-47
2023/06/14 11:57:10;;;;;;;;;;;;;;;23.65;59.79;100598.84;7395840;19;1726;-47
2023/06/14 11:59:41;;;;;;;;;;;;;;;23.58;60.34;100603.25;7395419;19;1720;-47
2023/06/14 12:02:10;;;;;;;;;;;;;;;23.66;60.11;100600.56;7395719;19;1838;-47
2023/06/14 12:04:38;;;;;;;;;;;;;;;23.68;61.09;100605.78;7396166;19;2014;-47
2023/06/14 12:07:17;;;;;;;;;;;;;;;23.42;60.44;100594.16;7403090;19;1928;-47
2023/06/14 12:10:07;;;;;;;;;;;;;;;23.11;57.88;100606.59;7401324;19;1753;-46
2023/06/14 12:12:37;;;;;;;;;;;;;;;23.14;57.73;100596.34;7402635;19;1741;-45
2023/06/14 12:15:06;;;;;;;;;;;;;;;23.28;55.51;100589.44;7400780;19;1805;-45
2023/06/14 12:17:35;;;;;;;;;;;;;;;23.36;54.56;100604.78;7402746;19;1727;-46
2023/06/14 12:20:10;;;;;;;;;;;;;;;23.49;55.54;100585.38;7402468;19;1711;-45
2023/06/14 12:22:41;;;;;;;;;;;;;;;23.55;55.52;100587.38;7402403;19;1840;-45
2023/06/14 12:25:09;;;;;;;;;;;;;;;23.50;55.12;100589.78;7400606;19;1536;-45
2023/06/14 12:27:38;;;;;;;;;;;;;;;23.40;55.60;100584.56;7402844;19;1408;-45
2023/06/14 12:30:08;;;;;;;;;;;;;;;23.32;55.08;100581.84;7401145;19;1513;-45
2023/06/14 12:32:36;;;;;;;;;;;;;;;23.33;55.87;100568.16;7401018;19;1546;-46
2023/06/14 12:35:05;;;;;;;;;;;;;;;23.26;55.48;100580.66;7402371;19;1555;-47
2023/06/14 12:37:33;;;;;;;;;;;;;;;23.15;56.16;100581.00;7402413;19;1471;-47
2023/06/14 12:40:05;;;;;;;;;;;;;;;23.18;56.41;100573.41;7400179;19;1905;-46
2023/06/14 12:42:34;;;;;;;;;;;;;;;23.27;56.16;100584.19;7400871;19;1849;-46
2023/06/14 12:45:03;;;;;;;;;;;;;;;23.39;56.46;100575.59;7399812;19;1480;-46
2023/06/14 12:47:31;;;;;;;;;;;;;;;23.27;56.62;100568.84;7401741;19;1653;-45
2023/06/14 12:49:59;;;;;;;;;;;;;;;23.30;56.61;100568.53;7400798;19;1566;-46
2023/06/14 12:52:27;;;;;;;;;;;;;;;23.35;56.13;100566.16;7400700;19;1708;-46
2023/06/14 12:54:56;;;;;;;;;;;;;;;23.32;56.71;100569.19;7401863;19;1854;-46
2023/06/14 12:57:27;;;;;;;;;;;;;;;23.31;56.47;100564.78;7402284;19;1591;-47
2023/06/14 12:59:55;;;;;;;;;;;;;;;23.34;55.83;100561.78;7401847;19;1692;-46